Pine Grove, Georgia
Current Conditions -  °F | °C
As of 5:55 PM on Tuesday 21 Oct 2014 (Local Time) from KBHC Reporting Station
Clear Clear  
Wind Chill: 79°   Ceiling: Unl
Heat Index: 79°   Visibility: 10mi
Dew Point: 54°   Wind: 5mph
Humidity: 42%   Direction: 270°W
Pressure: 29.9"   Gusts: NA
Location:  31.7834°N, 82.3304°W
Report Text: KBHC 212155Z AUTO 27004KT 10SM CLR 26/12 A2990 RMK AO2
Loading
Personal Weather Stations






























Interactive Weather Map
Tropical Storm Tracking
New forecast layout! Learn more

10-Day Weather Forecast

Advertisements
Track Severe Weather on mobile